Waycross, GA

11:39 PM EDT on September 01, 2014 (GMT -0400)
Waycross-Ware County | Change Station
CLOSE
Current Station
Airport
Location: Waycross,
Elevation: 151 ft
Nearby Weather Stations

Elev 151 ft 31.25 °N, 82.40 °W | Updated 24 minutes ago

Scattered Clouds
Scattered Clouds
81 °F
Feels Like 89 °F
N
0
Wind Variable Wind from North

Today
High -- | Low -- °F
--% Chance of Precip.
Yesterday
High -- | Low -- °F
Precip. -- in
7:05 AM 7:52 PM
Waxing Crescent, 47% visible
Pressure 30.11 in
Visibility 10.0 miles
Clouds Scattered Clouds 12000 ft
Heat Index 89 °F
Dew Point 78 °F
Humidity 89%
Rainfall 0.00 in
Snow Depth Not available.
UV 0 out of 12
Pollen 8.50 out of 12
Air Quality Not available.
Flu Activity Not available.
METAR KAYS 020315Z AUTO 00000KT 10SM SCT120 27/26 A3011 RMK AO2 T02740255

More Conditions Fewer Conditions

Pressure 30.11 in
Visibility 10.0 miles
Clouds Scattered Clouds 12000 ft
Heat Index 89 °F
Dew Point 78 °F
Humidity 89%
Rainfall 0.00 in
Snow Depth Not available.
UV 0 out of 12
Pollen 8.50 out of 12
Air Quality Not available.
Flu Activity Not available.
METAR KAYS 020315Z AUTO 00000KT 10SM SCT120 27/26 A3011 RMK AO2 T02740255

More Conditions Fewer Conditions

10-Day Weather Forecast

Almanac

Astronomy

Sep. 01, 2014 Rise Set
Actual Time 7:05 AM EDT 7:52 PM EDT
Civil Twilight 6:40 AM EDT 8:17 PM EDT
Nautical Twilight 6:11 AM EDT 8:46 PM EDT
Astronomical Twilight 5:41 AM EDT 9:16 PM EDT
Moon 1:24 PM EDT (9/1) No Moon Set
Length of Visible Light 13h 36m
Length of Day
12h 47m
Tomorrow will be 1m 50s shorter.
Waxing Crescent, 47% of the Moon is Illuminated
Today
Waxing Crescent
Sep 2
First Quarter
Sep 8
Full
Sep 15
Last Quarter
Sep 24
New

Today's Extremes

State Highs State Lows

Community

WunderPhotos

Upload Photos

1,749,555 photos uploaded!

WunderBlogs® & News

Nearby

Snow Depth

Station Depth Elevation
No new snow has been reported.

Earthquake Activity

City Distance Mag. Time & Date
No recent earthquake activity has been reported nearby.
Minimum magnitude displayed is 2.5.

Coastal Water Temperatures

Place Temperature
No Stations Reporting

Nearby Weather Stations